European Highlander — C6SN6 — position and weather

sailwx.info

Track history (hours):
 
Tides and Currents Weather Stations Pressure Air Temp Water Temp Dewpoint Dewpoint Depression Visibility Wind Speed Wind Dir Waves Ship Positions

European Highlander

Operator: P&O Irish Sea Ltd

Last reported at 2018-Sep-24 21:28 UTC. Time now 2018-Sep-24 21:59 UTC.
Position N 54°58' W 005°01'.

Length 161 m; draft 5.1 m.

Type: Passenger vessel. MMSI: 311404000.

Date/timePositionNaut miles runAvg speedWind from/ knotsBaromVisibWave heightAir tempDewpointWater temp
2018-Sep-24 21:28N 54°58' W 005°01'0 0.0
2018-Sep-24 21:03N 54°58' W 005°01'0 0.5
2018-Sep-24 21:00N 54°58' W 005°01'612.1
2018-Sep-24 20:30N 55°01' W 005°09'818.8
2018-Sep-24 20:03N 54°57' W 005°22'119.7
2018-Sep-24 20:00N 54°57' W 005°24'1020.6
2018-Sep-24 19:30N 54°53' W 005°40'511.2
2018-Sep-24 19:03N 54°51' W 005°48'0 0.0
2018-Sep-24 19:00N 54°51' W 005°48'0 0.0
2018-Sep-24 18:29N 54°51' W 005°48'0 0.0
2018-Sep-24 18:02N 54°51' W 005°48'0 0.0
2018-Sep-24 17:53N 54°51' W 005°48'0 0.0
2018-Sep-24 17:29N 54°51' W 005°48'1 3.3
2018-Sep-24 17:03N 54°52' W 005°47'119.5
2018-Sep-24 17:00N 54°52' W 005°45'1020.3
2018-Sep-24 16:30N 54°57' W 005°30'920.4
2018-Sep-24 16:03N 55°00' W 005°15'120.4
2018-Sep-24 16:00N 55°00' W 005°13'714.6
2018-Sep-24 15:30N 54°58' W 005°01'0 0.3
2018-Sep-24 14:59N 54°58' W 005°01'0 0.2
2018-Sep-24 14:31N 54°58' W 005°01'612.5
2018-Sep-24 14:00N 55°01' W 005°10'1121.5
2018-Sep-24 13:30N 54°56' W 005°27'920.5
2018-Sep-24 13:03N 54°53' W 005°42'120.4
2018-Sep-24 13:00N 54°53' W 005°44'3 6.4
2018-Sep-24 12:30N 54°51' W 005°48'0 0.0
2018-Sep-24 12:03N 54°51' W 005°48'0 0.0
2018-Sep-24 12:00N 54°51' W 005°48'0 0.0
2018-Sep-24 11:30N 54°51' W 005°48'4 8.6
2018-Sep-24 11:03N 54°53' W 005°42'117.7
2018-Sep-24 11:00N 54°54' W 005°41'917.5
2018-Sep-24 10:30N 54°57' W 005°27'817.6
2018-Sep-24 10:03N 55°00' W 005°15'117.5
2018-Sep-24 10:00N 55°01' W 005°13'713.2
2018-Sep-24 09:30N 54°59' W 005°02'1 2.3
2018-Sep-24 09:00N 54°58' W 005°01'0 0.0
2018-Sep-24 08:30N 54°58' W 005°01'510.6
2018-Sep-24 08:02N 55°02' W 005°06'017.3
2018-Sep-24 08:00N 55°01' W 005°07'816.7
2018-Sep-24 07:31N 54°58' W 005°20'818.1
2018-Sep-24 07:04N 54°55' W 005°33'118.7
2018-Sep-24 07:01N 54°54' W 005°35'816.3
2018-Sep-24 06:31N 54°51' W 005°48'0 0.3
2018-Sep-24 06:01N 54°51' W 005°48'0 0.0
2018-Sep-24 05:58N 54°51' W 005°48'0 0.0
2018-Sep-24 05:28N 54°51' W 005°48'0 0.0
2018-Sep-24 05:01N 54°51' W 005°48'0 0.0
2018-Sep-24 04:58N 54°51' W 005°48'3 5.8
2018-Sep-24 04:30N 54°53' W 005°44'817.4
2018-Sep-24 04:03N 54°56' W 005°32'117.5
2018-Sep-24 04:00N 54°57' W 005°31'817.0
2018-Sep-24 03:30N 54°60' W 005°17'913.8
2018-Sep-24 02:53N 54°59' W 005°02'1 3.2
2018-Sep-24 02:29N 54°58' W 005°01'0 0.0
2018-Sep-24 02:02N 54°58' W 005°01'0 0.1
2018-Sep-24 01:59N 54°58' W 005°01'0 0.0
2018-Sep-24 01:29N 54°58' W 005°01'0 0.0
2018-Sep-24 01:02N 54°58' W 005°01'0 0.0
2018-Sep-24 00:56N 54°58' W 005°01'510.0
2018-Sep-24 00:26N 55°02' W 005°07'717.7
2018-Sep-24 00:03N 54°59' W 005°18'117.9
2018-Sep-24 00:00N 54°59' W 005°19'917.6
2018-Sep-23 23:30N 54°55' W 005°33'817.5
2018-Sep-23 23:02N 54°52' W 005°47'016.4
2018-Sep-23 23:01N 54°52' W 005°47'1 2.4
2018-Sep-23 22:29N 54°51' W 005°48'0 0.0
2018-Sep-23 21:59N 54°51' W 005°48'0 0.0
2018-Sep-23 21:29N 54°51' W 005°48'0 0.0
2018-Sep-23 21:02N 54°51' W 005°48'0 0.0
2018-Sep-23 21:00N 54°51' W 005°48'510.2
2018-Sep-23 20:31N 54°54' W 005°41'817.0
2018-Sep-23 20:03N 54°57' W 005°29'116.9
2018-Sep-23 20:01N 54°57' W 005°27'917.4
2018-Sep-23 19:31N 55°01' W 005°13'613.1
2018-Sep-23 19:03N 54°59' W 005°03'0 9.7
2018-Sep-23 19:00N 54°59' W 005°03'2 2.6
2018-Sep-23 18:25N 54°58' W 005°01'0 0.0
2018-Sep-23 18:01N 54°58' W 005°01'0 0.0
2018-Sep-23 17:58N 54°58' W 005°01'0 0.0
2018-Sep-23 17:30N 54°58' W 005°01'5 9.7
2018-Sep-23 16:59N 55°02' W 005°07'918.8
2018-Sep-23 16:30N 54°58' W 005°21'919.8
2018-Sep-23 16:03N 54°54' W 005°35'119.9
2018-Sep-23 16:00N 54°54' W 005°37'714.1
2018-Sep-23 15:30N 54°51' W 005°48'0 0.1
2018-Sep-23 15:01N 54°51' W 005°48'0 0.1
2018-Sep-23 14:58N 54°51' W 005°48'0 0.0
2018-Sep-23 14:28N 54°51' W 005°48'1313.2
2018-Sep-23 13:30N 54°57' W 005°29'817.6
2018-Sep-23 13:03N 55°00' W 005°16'117.1
2018-Sep-23 13:01N 55°01' W 005°15'713.9
2018-Sep-23 12:30N 54°59' W 005°03'2 3.6
2018-Sep-23 12:03N 54°58' W 005°01'0 0.0
2018-Sep-23 12:00N 54°58' W 005°01'0 0.0
2018-Sep-23 11:26N 54°58' W 005°01'0 0.0
2018-Sep-23 11:03N 54°58' W 005°01'0 0.0
2018-Sep-23 10:56N 54°58' W 005°01'0 0.0
2018-Sep-23 10:30N 54°58' W 005°01'0 0.0
2018-Sep-23 10:01N 54°58' W 005°01'0 0.1
2018-Sep-23 10:00N 54°58' W 005°01'0 0.0
2018-Sep-23 09:28N 54°58' W 005°01'0 0.0
2018-Sep-23 09:03N 54°58' W 005°01'0 0.0
2018-Sep-23 08:59N 54°58' W 005°01'0 0.1
2018-Sep-23 08:30N 54°58' W 005°01'612.9
2018-Sep-23 08:03N 55°02' W 005°09'116.7
2018-Sep-23 08:00N 55°01' W 005°10'816.6
2018-Sep-23 07:30N 54°56' W 005°21'817.8
2018-Sep-23 07:03N 54°54' W 005°35'118.8
2018-Sep-23 07:00N 54°54' W 005°37'714.4
2018-Sep-23 06:30N 54°51' W 005°48'0 0.1
2018-Sep-23 05:59N 54°51' W 005°48'0 0.0
2018-Sep-23 05:29N 54°51' W 005°48'0 0.0
2018-Sep-23 05:02N 54°51' W 005°48'0 0.0
2018-Sep-23 04:56N 54°51' W 005°48'0 0.0
2018-Sep-23 04:26N 54°51' W 005°48'0 0.0
2018-Sep-23 04:02N 54°51' W 005°48'0 0.0
2018-Sep-23 03:56N 54°51' W 005°48'0 0.0
2018-Sep-23 02:38N 54°51' W 005°48'0 0.0
2018-Sep-23 02:20N 54°51' W 005°48'0 0.0
2018-Sep-23 01:50N 54°51' W 005°48'0 0.0
2018-Sep-23 01:29N 54°51' W 005°48'0 0.0
2018-Sep-23 01:02N 54°51' W 005°48'0 0.0
2018-Sep-23 00:56N 54°51' W 005°48'0 0.0
2018-Sep-23 00:26N 54°51' W 005°48'0 0.0
2018-Sep-22 23:56N 54°51' W 005°48'0 0.0
2018-Sep-22 23:26N 54°51' W 005°48'0 0.0
2018-Sep-22 23:02N 54°51' W 005°48'0 0.0
2018-Sep-22 22:38N 54°51' W 005°48'0 0.0
2018-Sep-22 22:26N 54°51' W 005°48'0 0.0
2018-Sep-22 22:02N 54°51' W 005°48'0 0.0
2018-Sep-22 21:50N 54°51' W 005°48'0 0.0
2018-Sep-22 20:50N 54°51' W 005°48'3 7.5
2018-Sep-22 20:30N 54°53' W 005°45'817.5
2018-Sep-22 20:03N 54°56' W 005°32'117.4
2018-Sep-22 20:00N 54°56' W 005°31'917.5
2018-Sep-22 19:30N 54°60' W 005°17'813.8
2018-Sep-22 18:54N 54°59' W 005°03'1 2.0
2018-Sep-22 18:11N 54°58' W 005°01'0 0.0
2018-Sep-22 17:56N 54°58' W 005°01'0 0.1
2018-Sep-22 17:31N 54°58' W 005°01'512.1
2018-Sep-22 17:03N 55°01' W 005°08'116.8
2018-Sep-22 17:00N 55°01' W 005°09'917.4
2018-Sep-22 16:30N 54°57' W 005°23'817.5
2018-Sep-22 16:03N 54°53' W 005°35'117.6
2018-Sep-22 16:00N 54°53' W 005°36'714.0
2018-Sep-22 15:30N 54°51' W 005°48'0 0.2
2018-Sep-22 15:03N 54°51' W 005°48'0 0.0
2018-Sep-22 15:00N 54°51' W 005°48'4 4.5
2018-Sep-22 14:03N 54°53' W 005°42'118.2
2018-Sep-22 14:00N 54°54' W 005°40'917.5
2018-Sep-22 13:30N 54°58' W 005°27'816.6
2018-Sep-22 13:03N 55°00' W 005°14'116.0
2018-Sep-22 13:00N 55°01' W 005°13'713.6
2018-Sep-22 12:30N 54°59' W 005°02'1 2.3
2018-Sep-22 12:02N 54°58' W 005°01'0 0.1
2018-Sep-22 11:56N 54°58' W 005°01'0 0.0
2018-Sep-22 11:30N 54°58' W 005°01'510.9
2018-Sep-22 11:03N 55°02' W 005°06'120.4
2018-Sep-22 11:00N 55°02' W 005°08'1020.6
2018-Sep-22 10:31N 54°57' W 005°24'920.4
2018-Sep-22 10:03N 54°54' W 005°39'120.5
2018-Sep-22 10:00N 54°53' W 005°40'5 9.8
2018-Sep-22 09:30N 54°51' W 005°48'0 0.0
2018-Sep-22 08:57N 54°51' W 005°48'0 0.0
2018-Sep-22 08:31N 54°51' W 005°48'511.4
2018-Sep-22 08:03N 54°54' W 005°40'119.6
2018-Sep-22 08:00N 54°54' W 005°39'918.0
2018-Sep-22 07:30N 54°58' W 005°25'817.0
2018-Sep-22 07:03N 55°01' W 005°12'117.7
2018-Sep-22 07:00N 55°01' W 005°11'713.2
2018-Sep-22 06:31N 54°58' W 005°01'0 0.4
2018-Sep-22 06:02N 54°58' W 005°01'0 0.0
2018-Sep-22 05:56N 54°58' W 005°01'0 0.0
2018-Sep-22 05:29N 54°58' W 005°01'0 0.0
2018-Sep-22 05:02N 54°58' W 005°01'0 0.0
2018-Sep-22 05:01N 54°58' W 005°01'510.1
2018-Sep-22 04:30N 55°02' W 005°07'816.9
2018-Sep-22 04:04N 54°59' W 005°19'116.9
2018-Sep-22 04:01N 54°58' W 005°20'917.1
2018-Sep-22 03:31N 54°55' W 005°34'817.9
2018-Sep-22 03:03N 54°52' W 005°47'112.7
2018-Sep-22 03:00N 54°51' W 005°48'0 0.7
2018-Sep-22 02:27N 54°51' W 005°48'0 0.0
2018-Sep-22 02:03N 54°51' W 005°48'0 0.0
2018-Sep-22 02:00N 54°51' W 005°48'0 0.0
2018-Sep-22 01:30N 54°51' W 005°48'0 0.0
2018-Sep-22 01:03N 54°51' W 005°48'0 0.0
2018-Sep-22 01:00N 54°51' W 005°48'510.2
2018-Sep-22 00:30N 54°54' W 005°41'817.6
2018-Sep-22 00:03N 54°57' W 005°28'117.2
2018-Sep-22 00:00N 54°58' W 005°27'816.8
2018-Sep-21 23:30N 55°01' W 005°13'613.7
2018-Sep-21 23:02N 54°59' W 005°03'116.1
2018-Sep-21 23:00N 54°59' W 005°02'1 1.9
2018-Sep-21 22:25N 54°58' W 005°01'0 0.0
2018-Sep-21 21:19N 54°58' W 005°01'0 0.0
2018-Sep-21 20:55N 54°58' W 005°01'510.0
2018-Sep-21 20:25N 55°02' W 005°07'617.4
2018-Sep-21 20:03N 54°60' W 005°17'117.5
2018-Sep-21 20:00N 54°59' W 005°19'918.5
2018-Sep-21 19:30N 54°55' W 005°33'818.7
2018-Sep-21 19:03N 54°52' W 005°47'114.6
2018-Sep-21 19:00N 54°52' W 005°48'1 1.4
2018-Sep-21 18:29N 54°51' W 005°48'0 0.0
2018-Sep-21 18:02N 54°51' W 005°48'0 0.0
2018-Sep-21 17:59N 54°51' W 005°48'0 0.0
2018-Sep-21 17:30N 54°51' W 005°48'612.5
2018-Sep-21 17:03N 54°54' W 005°40'119.1
2018-Sep-21 17:00N 54°54' W 005°38'1019.0
2018-Sep-21 16:30N 54°58' W 005°23'919.1
2018-Sep-21 16:03N 55°02' W 005°09'118.7
2018-Sep-21 16:00N 55°02' W 005°08'611.2
2018-Sep-21 15:30N 54°58' W 005°01'0 0.0
2018-Sep-21 15:03N 54°58' W 005°01'0 0.0
2018-Sep-21 15:01N 54°58' W 005°01'0 0.0
2018-Sep-21 14:30N 54°58' W 005°01'1110.9
2018-Sep-21 13:30N 54°58' W 005°20'919.8
2018-Sep-21 13:03N 54°55' W 005°34'119.9
2018-Sep-21 13:00N 54°54' W 005°36'815.3
2018-Sep-21 12:31N 54°51' W 005°48'0 0.1
2018-Sep-21 12:04N 54°51' W 005°48'0 0.0
2018-Sep-21 12:01N 54°51' W 005°48'0 0.1
2018-Sep-21 11:30N 54°51' W 005°48'716.7
2018-Sep-21 11:03N 54°55' W 005°37'120.9
2018-Sep-21 11:00N 54°55' W 005°35'1020.7
2018-Sep-21 10:30N 54°60' W 005°19'915.8
2018-Sep-21 09:56N 54°59' W 005°03'2 2.3
2018-Sep-21 09:05N 54°58' W 005°01'0 0.0
2018-Sep-21 08:59N 54°58' W 005°01'0 0.0
2018-Sep-21 08:30N 54°58' W 005°01'510.1
2018-Sep-21 08:00N 55°02' W 005°07'817.4
2018-Sep-21 07:30N 54°57' W 005°20'918.6
2018-Sep-21 07:03N 54°54' W 005°34'118.9
2018-Sep-21 07:00N 54°54' W 005°35'815.8
2018-Sep-21 06:30N 54°51' W 005°48'0 0.3
2018-Sep-21 06:03N 54°51' W 005°48'0 0.0
2018-Sep-21 06:00N 54°51' W 005°48'0 0.0
2018-Sep-21 05:30N 54°51' W 005°48'0 0.0
2018-Sep-21 05:04N 54°51' W 005°48'0 0.5
2018-Sep-21 05:01N 54°51' W 005°48'713.0
2018-Sep-21 04:30N 54°54' W 005°38'816.9
2018-Sep-21 04:03N 54°58' W 005°26'116.5
2018-Sep-21 04:00N 54°58' W 005°25'817.1
2018-Sep-21 03:30N 55°01' W 005°11'613.3
2018-Sep-21 03:03N 54°58' W 005°02'113.8
2018-Sep-21 03:00N 54°58' W 005°01'0 0.4
2018-Sep-21 02:30N 54°58' W 005°01'0 0.0
2018-Sep-21 02:03N 54°58' W 005°01'0 0.0
2018-Sep-21 02:00N 54°58' W 005°01'0 0.0
2018-Sep-21 01:27N 54°58' W 005°01'0 0.0
2018-Sep-21 01:00N 54°58' W 005°01'5 9.6
2018-Sep-21 00:30N 55°01' W 005°06'817.6
2018-Sep-21 00:03N 54°58' W 005°19'118.2
2018-Sep-21 00:01N 54°58' W 005°20'917.8
2018-Sep-20 23:30N 54°54' W 005°34'817.5
2018-Sep-20 23:03N 54°52' W 005°47'113.8
2018-Sep-20 23:00N 54°51' W 005°48'0 0.7
2018-Sep-20 22:30N 54°51' W 005°48'0 0.0
2018-Sep-20 22:03N 54°51' W 005°48'0 0.0
2018-Sep-20 22:00N 54°51' W 005°48'0 0.0
2018-Sep-20 21:27N 54°51' W 005°48'0 0.0
2018-Sep-20 21:03N 54°51' W 005°48'0 0.0
2018-Sep-20 21:00N 54°51' W 005°48'611.2
2018-Sep-20 20:30N 54°54' W 005°39'818.2
2018-Sep-20 20:03N 54°58' W 005°27'118.3
2018-Sep-20 20:00N 54°58' W 005°26'1314.1
2018-Sep-20 19:04N 54°59' W 005°02'0 9.8
2018-Sep-20 19:03N 54°59' W 005°02'114.8
2018-Sep-20 19:00N 54°58' W 005°02'1 1.1
2018-Sep-20 18:25N 54°58' W 005°01'0 0.0
2018-Sep-20 17:55N 54°58' W 005°01'0 0.0
2018-Sep-20 17:29N 54°58' W 005°01'510.3
2018-Sep-20 17:00N 55°02' W 005°07'919.3
2018-Sep-20 16:30N 54°58' W 005°22'920.4
2018-Sep-20 16:03N 54°55' W 005°37'120.8
2018-Sep-20 16:00N 54°54' W 005°38'612.2
2018-Sep-20 15:29N 54°51' W 005°48'0 0.0
2018-Sep-20 15:03N 54°51' W 005°48'0 0.0
2018-Sep-20 15:00N 54°51' W 005°48'0 0.0
2018-Sep-20 14:30N 54°51' W 005°48'610.9
2018-Sep-20 13:56N 54°54' W 005°39'819.5
2018-Sep-20 13:30N 54°58' W 005°26'1415.1
2018-Sep-20 12:36N 54°59' W 005°02'1 1.0
2018-Sep-20 11:25N 54°58' W 005°01'613.1
2018-Sep-20 10:57N 55°01' W 005°10'921.5
2018-Sep-20 10:31N 54°57' W 005°25'921.0
2018-Sep-20 10:03N 54°54' W 005°40'121.1
2018-Sep-20 10:01N 54°54' W 005°42'4 8.8
2018-Sep-20 09:30N 54°51' W 005°48'0 0.0
2018-Sep-20 09:00N 54°51' W 005°48'0 0.2
2018-Sep-20 08:30N 54°51' W 005°48'916.6
2018-Sep-20 07:59N 54°55' W 005°35'1020.4
2018-Sep-20 07:30N 54°59' W 005°19'1015.6
2018-Sep-20 06:53N 54°59' W 005°02'1 0.8
2018-Sep-20 05:12N 54°58' W 005°01'110.3
2018-Sep-20 05:03N 54°59' W 005°03'515.9
2018-Sep-20 04:44N 55°01' W 005°10'520.5
2018-Sep-20 04:31N 54°59' W 005°17'1021.2
2018-Sep-20 04:03N 54°55' W 005°32'122.0
2018-Sep-20 04:00N 54°54' W 005°34'917.3
2018-Sep-20 03:30N 54°51' W 005°48'0 0.2
2018-Sep-20 03:01N 54°51' W 005°48'0 0.0
2018-Sep-20 02:58N 54°51' W 005°48'0 0.0
2018-Sep-20 02:25N 54°51' W 005°48'0 0.0
2018-Sep-20 02:01N 54°51' W 005°48'0 0.0
2018-Sep-20 01:58N 54°51' W 005°48'4 7.7
2018-Sep-20 01:27N 54°53' W 005°42'820.1
2018-Sep-20 01:03N 54°57' W 005°30'120.0
2018-Sep-20 01:01N 54°57' W 005°28'1019.7
2018-Sep-20 00:29N 55°01' W 005°12'7 3.4
2018-Sep-19 22:22N 54°58' W 005°01'0 0.0
2018-Sep-19 21:37N 54°58' W 005°01'0 0.6
2018-Sep-19 21:30N 54°58' W 005°01'614.3
2018-Sep-19 21:03N 55°01' W 005°10'120.5
2018-Sep-19 21:00N 55°01' W 005°12'1020.7
2018-Sep-19 20:30N 54°56' W 005°28'921.0
2018-Sep-19 20:04N 54°53' W 005°43'121.0
2018-Sep-19 20:01N 54°53' W 005°45'3 5.0
2018-Sep-19 19:30N 54°51' W 005°48'0 0.0
2018-Sep-19 19:00N 54°51' W 005°48'0 0.0
2018-Sep-19 18:27N 54°51' W 005°48'0 0.0
2018-Sep-19 18:00N 54°51' W 005°48'0 0.0
2018-Sep-19 17:31N 54°51' W 005°48'410.0
2018-Sep-19 17:03N 54°54' W 005°42'119.9
2018-Sep-19 17:00N 54°54' W 005°40'1019.7
2018-Sep-19 16:31N 54°59' W 005°26'1315.4
2018-Sep-19 15:38N 54°59' W 005°02'0 0.0
2018-Sep-19 04:41N 54°59' W 005°02'515.5
2018-Sep-19 04:23N 55°01' W 005°08'619.5
2018-Sep-19 04:04N 54°59' W 005°18'119.8
2018-Sep-19 04:01N 54°58' W 005°20'1220.1
2018-Sep-19 03:26N 54°54' W 005°38'616.1
2018-Sep-19 03:03N 54°51' W 005°48'0 1.4
2018-Sep-19 03:00N 54°51' W 005°48'0 0.1
2018-Sep-19 02:30N 54°51' W 005°48'0 0.0
2018-Sep-19 02:03N 54°51' W 005°48'0 0.0
2018-Sep-19 01:51N 54°51' W 005°48'0 0.0
2018-Sep-19 01:24N 54°51' W 005°48'0 0.0
2018-Sep-19 01:03N 54°51' W 005°48'0 0.0
2018-Sep-19 01:00N 54°51' W 005°48'3 5.4
2018-Sep-19 00:30N 54°53' W 005°44'919.6
2018-Sep-19 00:03N 54°57' W 005°31'117.8
2018-Sep-19 00:01N 54°58' W 005°30'918.5
2018-Sep-18 23:30N 55°01' W 005°15'715.3
2018-Sep-18 23:01N 54°59' W 005°03'015.8
2018-Sep-18 23:00N 54°59' W 005°02'1 0.6
2018-Sep-18 20:57N 54°58' W 005°01'611.2
2018-Sep-18 20:26N 55°01' W 005°09'718.0
2018-Sep-18 20:03N 54°59' W 005°20'118.3
2018-Sep-18 20:00N 54°58' W 005°21'1017.5
2018-Sep-18 19:25N 54°54' W 005°38'615.5
2018-Sep-18 19:00N 54°51' W 005°48'0 0.3
2018-Sep-18 18:30N 54°51' W 005°48'0 0.0
2018-Sep-18 18:03N 54°51' W 005°48'0 0.0
2018-Sep-18 18:00N 54°51' W 005°48'0 0.0
2018-Sep-18 17:30N 54°51' W 005°48'4 8.2
2018-Sep-18 17:03N 54°54' W 005°44'217.7
2018-Sep-18 16:57N 54°55' W 005°41'716.7
2018-Sep-18 16:30N 54°57' W 005°29'716.5
2018-Sep-18 16:04N 54°60' W 005°17'116.6
2018-Sep-18 16:00N 55°00' W 005°16'813.8
2018-Sep-18 15:26N 54°59' W 005°02'1 0.9
2018-Sep-18 14:16N 54°58' W 005°01'613.0
2018-Sep-18 13:50N 55°01' W 005°09'720.0
2018-Sep-18 13:30N 54°58' W 005°19'920.6
2018-Sep-18 13:03N 54°55' W 005°33'320.9
2018-Sep-18 12:56N 54°54' W 005°38'615.4
2018-Sep-18 12:30N 54°51' W 005°48'0 0.3
2018-Sep-18 12:03N 54°51' W 005°48'0 0.0
2018-Sep-18 12:00N 54°51' W 005°48'0 0.0
2018-Sep-18 11:30N 54°51' W 005°48'611.4
2018-Sep-18 10:56N 54°54' W 005°38'919.6
2018-Sep-18 10:30N 54°58' W 005°25'1315.7
2018-Sep-18 09:41N 54°59' W 005°02'1 0.9
2018-Sep-18 08:22N 54°58' W 005°01'613.1
2018-Sep-18 07:53N 55°01' W 005°10'718.3
2018-Sep-18 07:30N 54°58' W 005°20'1117.6
2018-Sep-18 06:54N 54°54' W 005°38'616.0
2018-Sep-18 06:30N 54°51' W 005°48'0 0.4
2018-Sep-18 05:59N 54°51' W 005°48'0 0.0
2018-Sep-18 05:29N 54°51' W 005°48'0 0.0
2018-Sep-18 05:03N 54°51' W 005°48'0 0.0
2018-Sep-18 05:00N 54°51' W 005°48'612.6
2018-Sep-18 04:30N 54°54' W 005°39'817.3
2018-Sep-18 04:03N 54°58' W 005°27'116.1
2018-Sep-18 04:00N 54°58' W 005°26'1015.8
2018-Sep-18 03:23N 55°01' W 005°09'513.0
2018-Sep-18 03:01N 54°59' W 005°02'014.3
2018-Sep-18 03:01N 54°59' W 005°02'1 0.5
2018-Sep-18 00:54N 54°58' W 005°01'512.0
2018-Sep-18 00:27N 55°02' W 005°08'820.5
2018-Sep-18 00:04N 54°59' W 005°21'120.9
2018-Sep-18 00:00N 54°59' W 005°23'1021.0
2018-Sep-17 23:31N 54°54' W 005°39'613.0
2018-Sep-17 23:03N 54°51' W 005°48'0 0.0
2018-Sep-17 23:00N 54°51' W 005°48'0 0.0
2018-Sep-17 22:29N 54°51' W 005°48'0 0.0
2018-Sep-17 22:02N 54°51' W 005°48'0 0.0
2018-Sep-17 21:56N 54°51' W 005°48'0 0.0
2018-Sep-17 21:29N 54°51' W 005°48'0 0.0
2018-Sep-17 21:02N 54°51' W 005°48'0 0.0
2018-Sep-17 21:00N 54°51' W 005°48'712.1
2018-Sep-17 20:27N 54°55' W 005°38'616.5
2018-Sep-17 20:03N 54°57' W 005°28'115.7
2018-Sep-17 20:00N 54°58' W 005°27'815.5
2018-Sep-17 19:29N 55°01' W 005°14'712.9
2018-Sep-17 18:56N 54°59' W 005°02'1 0.7
2018-Sep-17 17:19N 54°58' W 005°01'613.4
2018-Sep-17 16:54N 55°02' W 005°08'819.9
2018-Sep-17 16:30N 54°58' W 005°20'920.0
2018-Sep-17 16:03N 54°55' W 005°35'220.3
2018-Sep-17 15:58N 54°54' W 005°38'714.2
2018-Sep-17 15:30N 54°51' W 005°48'0 0.1
2018-Sep-17 15:03N 54°51' W 005°48'0 0.0
2018-Sep-17 15:00N 54°51' W 005°48'0 0.0
2018-Sep-17 14:30N 54°51' W 005°48'610.5
2018-Sep-17 13:54N 54°54' W 005°39'616.2
2018-Sep-17 13:30N 54°57' W 005°29'816.6
2018-Sep-17 13:03N 55°00' W 005°17'116.5
2018-Sep-17 13:00N 55°00' W 005°15'813.5
2018-Sep-17 12:26N 54°59' W 005°02'1 1.6
2018-Sep-17 11:40N 54°58' W 005°01'0 0.0
2018-Sep-17 11:26N 54°58' W 005°01'610.4
2018-Sep-17 10:54N 55°01' W 005°08'819.9
2018-Sep-17 10:31N 54°58' W 005°21'1120.3
2018-Sep-17 09:59N 54°54' W 005°37'713.7
2018-Sep-17 09:30N 54°51' W 005°48'0 0.2
2018-Sep-17 09:03N 54°51' W 005°48'0 0.0
2018-Sep-17 09:00N 54°51' W 005°48'0 0.0
2018-Sep-17 08:30N 54°51' W 005°48'2 4.6
2018-Sep-17 08:03N 54°52' W 005°46'117.9
2018-Sep-17 08:00N 54°53' W 005°44'918.0
2018-Sep-17 07:30N 54°57' W 005°30'817.6
2018-Sep-17 07:03N 54°60' W 005°17'117.3
2018-Sep-17 07:00N 55°00' W 005°16'814.1
2018-Sep-17 06:26N 54°59' W 005°03'1 1.0
2018-Sep-17 05:02N 54°58' W 005°01'0 0.2
2018-Sep-17 05:00N 54°58' W 005°01'5 9.6
2018-Sep-17 04:28N 55°02' W 005°07'717.6
2018-Sep-17 04:03N 54°59' W 005°19'117.8
2018-Sep-17 04:00N 54°58' W 005°20'918.2
2018-Sep-17 03:30N 54°54' W 005°34'817.7
2018-Sep-17 03:03N 54°52' W 005°47'112.3
2018-Sep-17 03:00N 54°51' W 005°48'0 0.4
2018-Sep-17 02:28N 54°51' W 005°48'0 0.0
2018-Sep-17 02:01N 54°51' W 005°48'0 0.0
2018-Sep-17 01:58N 54°51' W 005°48'0 0.0
2018-Sep-17 01:28N 54°51' W 005°48'0 0.0
2018-Sep-17 01:01N 54°51' W 005°48'0 0.0
2018-Sep-17 00:59N 54°51' W 005°48'5 9.8
2018-Sep-17 00:30N 54°53' W 005°41'817.3
2018-Sep-17 00:04N 54°57' W 005°29'116.9
2018-Sep-17 00:00N 54°57' W 005°28'917.4
2018-Sep-16 23:30N 55°01' W 005°14'713.7
2018-Sep-16 23:01N 54°59' W 005°02'014.3
2018-Sep-16 23:00N 54°59' W 005°02'1 0.6
2018-Sep-16 21:00N 54°58' W 005°01'510.4
2018-Sep-16 20:29N 55°02' W 005°08'717.5
2018-Sep-16 20:04N 54°58' W 005°19'118.1
2018-Sep-16 20:01N 54°58' W 005°21'917.3
2018-Sep-16 19:30N 54°55' W 005°35'816.0
2018-Sep-16 18:59N 54°51' W 005°48'0 0.4
2018-Sep-16 18:27N 54°51' W 005°48'0 0.0
2018-Sep-16 18:03N 54°51' W 005°48'0 0.1
2018-Sep-16 18:00N 54°51' W 005°48'0 0.0
2018-Sep-16 17:30N 54°51' W 005°48'4 9.1
2018-Sep-16 17:03N 54°53' W 005°42'218.1
2018-Sep-16 16:56N 54°54' W 005°39'817.7
2018-Sep-16 16:30N 54°57' W 005°27'817.4
2018-Sep-16 16:03N 55°00' W 005°14'117.5
2018-Sep-16 16:00N 55°01' W 005°13'713.7
2018-Sep-16 15:30N 54°58' W 005°02'6 3.4
2018-Sep-16 13:53N 55°01' W 005°10'719.5
2018-Sep-16 13:30N 54°58' W 005°21'1220.6
2018-Sep-16 12:57N 54°53' W 005°40'512.2
2018-Sep-16 12:30N 54°51' W 005°48'0 0.0
2018-Sep-16 12:00N 54°51' W 005°48'0 0.0
2018-Sep-16 11:27N 54°51' W 005°48'0 0.0
2018-Sep-16 11:02N 54°51' W 005°48'0 0.2
2018-Sep-16 11:00N 54°51' W 005°48'0 0.0
2018-Sep-16 10:30N 54°51' W 005°48'0 0.0
2018-Sep-16 10:03N 54°51' W 005°48'0 0.0
2018-Sep-16 10:00N 54°51' W 005°48'0 0.0
2018-Sep-16 09:30N 54°51' W 005°48'0 0.0
2018-Sep-16 09:03N 54°51' W 005°48'0 0.0
2018-Sep-16 09:00N 54°51' W 005°48'0 0.0
2018-Sep-16 08:30N 54°51' W 005°48'2 4.7
2018-Sep-16 08:03N 54°52' W 005°45'119.2
2018-Sep-16 08:01N 54°53' W 005°44'1019.2
2018-Sep-16 07:31N 54°57' W 005°29'817.6
2018-Sep-16 07:04N 55°00' W 005°17'114.6
2018-Sep-16 07:00N 55°00' W 005°15'813.0
2018-Sep-16 06:25N 54°59' W 005°02'1 0.1
2018-Sep-15 21:01N 54°58' W 005°01'0 1.9
2018-Sep-15 20:58N 54°58' W 005°01'611.9
2018-Sep-15 20:30N 55°01' W 005°08'919.8
2018-Sep-15 20:03N 54°58' W 005°22'120.3
2018-Sep-15 20:00N 54°57' W 005°24'1019.7
2018-Sep-15 19:30N 54°54' W 005°40'612.3
2018-Sep-15 19:03N 54°51' W 005°48'0 0.1
2018-Sep-15 19:00N 54°51' W 005°48'0 0.0
2018-Sep-15 18:27N 54°51' W 005°48'0 0.0
2018-Sep-15 17:57N 54°51' W 005°48'0 0.0
2018-Sep-15 17:30N 54°51' W 005°48'2 4.0
2018-Sep-15 16:58N 54°52' W 005°45'920.1
2018-Sep-15 16:30N 54°56' W 005°30'919.7
2018-Sep-15 16:02N 55°00' W 005°16'219.2
2018-Sep-15 15:55N 55°01' W 005°13'615.3
2018-Sep-15 15:30N 54°59' W 005°02'1 1.1
2018-Sep-15 14:18N 54°58' W 005°01'612.8
2018-Sep-15 13:52N 55°02' W 005°08'719.3
2018-Sep-15 13:30N 54°58' W 005°19'920.0
2018-Sep-15 13:03N 54°55' W 005°33'120.6
2018-Sep-15 13:00N 54°54' W 005°35'816.5
2018-Sep-15 12:30N 54°51' W 005°48'0 0.2
2018-Sep-15 12:03N 54°51' W 005°48'0 0.0
2018-Sep-15 12:00N 54°51' W 005°48'0 0.0
2018-Sep-15 11:30N 54°51' W 005°48'612.0
2018-Sep-15 11:00N 54°54' W 005°39'816.5
2018-Sep-15 10:30N 54°58' W 005°27'817.1
2018-Sep-15 10:03N 55°01' W 005°14'117.4
2018-Sep-15 09:59N 55°01' W 005°12'613.0
2018-Sep-15 09:30N 54°59' W 005°02'1 1.3
2018-Sep-15 08:41N 54°58' W 005°01'0 0.1
2018-Sep-15 08:26N 54°58' W 005°01'610.5
2018-Sep-15 07:53N 55°01' W 005°09'617.1
2018-Sep-15 07:31N 54°59' W 005°19'817.8
2018-Sep-15 07:04N 54°55' W 005°31'117.6
2018-Sep-15 07:00N 54°55' W 005°33'916.0
2018-Sep-15 06:25N 54°51' W 005°48'0 0.4
2018-Sep-15 06:03N 54°51' W 005°48'0 0.0
2018-Sep-15 06:00N 54°51' W 005°48'0 0.0
2018-Sep-15 05:30N 54°51' W 005°48'0 0.0
2018-Sep-15 05:03N 54°51' W 005°48'0 0.0
2018-Sep-15 05:00N 54°51' W 005°48'4 7.9
2018-Sep-15 04:29N 54°53' W 005°42'917.9
2018-Sep-15 03:58N 54°58' W 005°28'817.6
2018-Sep-15 03:30N 55°01' W 005°15'713.8
2018-Sep-15 02:58N 54°59' W 005°02'1 0.6
2018-Sep-15 00:54N 54°58' W 005°01'612.8
2018-Sep-15 00:26N 55°01' W 005°09'617.1
2018-Sep-15 00:04N 54°58' W 005°19'117.3
2018-Sep-15 00:01N 54°57' W 005°20'1118.3
2018-Sep-14 23:26N 54°53' W 005°36'716.7
2018-Sep-14 23:01N 54°51' W 005°48'0 6.2
2018-Sep-14 23:00N 54°51' W 005°48'0 0.2
2018-Sep-14 22:29N 54°51' W 005°48'0 0.0
2018-Sep-14 22:02N 54°51' W 005°48'0 0.1
2018-Sep-14 21:59N 54°51' W 005°48'  
Track history (hours):
 
Tides and Currents Weather Stations Pressure Air Temp Water Temp Dewpoint Dewpoint Depression Visibility Wind Speed Wind Dir Waves Ship Positions

European Highlander

Operator: P&O Irish Sea Ltd

Last reported at 2018-Sep-24 21:28 UTC. Time now 2018-Sep-24 21:59 UTC.
Position N 54°58' W 005°01'.

Length 161 m; draft 5.1 m.

Type: Passenger vessel. MMSI: 311404000.

Date/timePositionNaut miles runAvg speedWind from/ knotsBaromVisibWave heightAir tempDewpointWater temp
2018-Sep-24 21:28N 54°58' W 005°01'0 0.0
2018-Sep-24 21:03N 54°58' W 005°01'0 0.5
2018-Sep-24 21:00N 54°58' W 005°01'612.1
2018-Sep-24 20:30N 55°01' W 005°09'818.8
2018-Sep-24 20:03N 54°57' W 005°22'119.7
2018-Sep-24 20:00N 54°57' W 005°24'1020.6
2018-Sep-24 19:30N 54°53' W 005°40'511.2
2018-Sep-24 19:03N 54°51' W 005°48'0 0.0
2018-Sep-24 19:00N 54°51' W 005°48'0 0.0
2018-Sep-24 18:29N 54°51' W 005°48'0 0.0
2018-Sep-24 18:02N 54°51' W 005°48'0 0.0
2018-Sep-24 17:53N 54°51' W 005°48'0 0.0
2018-Sep-24 17:29N 54°51' W 005°48'1 3.3
2018-Sep-24 17:03N 54°52' W 005°47'119.5
2018-Sep-24 17:00N 54°52' W 005°45'1020.3
2018-Sep-24 16:30N 54°57' W 005°30'920.4
2018-Sep-24 16:03N 55°00' W 005°15'120.4
2018-Sep-24 16:00N 55°00' W 005°13'714.6
2018-Sep-24 15:30N 54°58' W 005°01'0 0.3
2018-Sep-24 14:59N 54°58' W 005°01'0 0.2
2018-Sep-24 14:31N 54°58' W 005°01'612.5
2018-Sep-24 14:00N 55°01' W 005°10'1121.5
2018-Sep-24 13:30N 54°56' W 005°27'920.5
2018-Sep-24 13:03N 54°53' W 005°42'120.4
2018-Sep-24 13:00N 54°53' W 005°44'3 6.4
2018-Sep-24 12:30N 54°51' W 005°48'0 0.0
2018-Sep-24 12:03N 54°51' W 005°48'0 0.0
2018-Sep-24 12:00N 54°51' W 005°48'0 0.0
2018-Sep-24 11:30N 54°51' W 005°48'4 8.6
2018-Sep-24 11:03N 54°53' W 005°42'117.7
2018-Sep-24 11:00N 54°54' W 005°41'917.5
2018-Sep-24 10:30N 54°57' W 005°27'817.6
2018-Sep-24 10:03N 55°00' W 005°15'117.5
2018-Sep-24 10:00N 55°01' W 005°13'713.2
2018-Sep-24 09:30N 54°59' W 005°02'1 2.3
2018-Sep-24 09:00N 54°58' W 005°01'0 0.0
2018-Sep-24 08:30N 54°58' W 005°01'510.6
2018-Sep-24 08:02N 55°02' W 005°06'017.3
2018-Sep-24 08:00N 55°01' W 005°07'816.7
2018-Sep-24 07:31N 54°58' W 005°20'818.1
2018-Sep-24 07:04N 54°55' W 005°33'118.7
2018-Sep-24 07:01N 54°54' W 005°35'816.3
2018-Sep-24 06:31N 54°51' W 005°48'0 0.3
2018-Sep-24 06:01N 54°51' W 005°48'0 0.0
2018-Sep-24 05:58N 54°51' W 005°48'0 0.0
2018-Sep-24 05:28N 54°51' W 005°48'0 0.0
2018-Sep-24 05:01N 54°51' W 005°48'0 0.0
2018-Sep-24 04:58N 54°51' W 005°48'3 5.8
2018-Sep-24 04:30N 54°53' W 005°44'817.4
2018-Sep-24 04:03N 54°56' W 005°32'117.5
2018-Sep-24 04:00N 54°57' W 005°31'817.0
2018-Sep-24 03:30N 54°60' W 005°17'913.8
2018-Sep-24 02:53N 54°59' W 005°02'1 3.2
2018-Sep-24 02:29N 54°58' W 005°01'0 0.0
2018-Sep-24 02:02N 54°58' W 005°01'0 0.1
2018-Sep-24 01:59N 54°58' W 005°01'0 0.0
2018-Sep-24 01:29N 54°58' W 005°01'0 0.0
2018-Sep-24 01:02N 54°58' W 005°01'0 0.0
2018-Sep-24 00:56N 54°58' W 005°01'510.0
2018-Sep-24 00:26N 55°02' W 005°07'717.7
2018-Sep-24 00:03N 54°59' W 005°18'117.9
2018-Sep-24 00:00N 54°59' W 005°19'917.6
2018-Sep-23 23:30N 54°55' W 005°33'817.5
2018-Sep-23 23:02N 54°52' W 005°47'016.4
2018-Sep-23 23:01N 54°52' W 005°47'1 2.4
2018-Sep-23 22:29N 54°51' W 005°48'0 0.0
2018-Sep-23 21:59N 54°51' W 005°48'0 0.0
2018-Sep-23 21:29N 54°51' W 005°48'0 0.0
2018-Sep-23 21:02N 54°51' W 005°48'0 0.0
2018-Sep-23 21:00N 54°51' W 005°48'510.2
2018-Sep-23 20:31N 54°54' W 005°41'817.0
2018-Sep-23 20:03N 54°57' W 005°29'116.9
2018-Sep-23 20:01N 54°57' W 005°27'917.4
2018-Sep-23 19:31N 55°01' W 005°13'613.1
2018-Sep-23 19:03N 54°59' W 005°03'0 9.7
2018-Sep-23 19:00N 54°59' W 005°03'2 2.6
2018-Sep-23 18:25N 54°58' W 005°01'0 0.0
2018-Sep-23 18:01N 54°58' W 005°01'0 0.0
2018-Sep-23 17:58N 54°58' W 005°01'0 0.0
2018-Sep-23 17:30N 54°58' W 005°01'5 9.7
2018-Sep-23 16:59N 55°02' W 005°07'918.8
2018-Sep-23 16:30N 54°58' W 005°21'919.8
2018-Sep-23 16:03N 54°54' W 005°35'119.9
2018-Sep-23 16:00N 54°54' W 005°37'714.1
2018-Sep-23 15:30N 54°51' W 005°48'0 0.1
2018-Sep-23 15:01N 54°51' W 005°48'0 0.1
2018-Sep-23 14:58N 54°51' W 005°48'0 0.0
2018-Sep-23 14:28N 54°51' W 005°48'1313.2
2018-Sep-23 13:30N 54°57' W 005°29'817.6
2018-Sep-23 13:03N 55°00' W 005°16'117.1
2018-Sep-23 13:01N 55°01' W 005°15'713.9
2018-Sep-23 12:30N 54°59' W 005°03'2 3.6
2018-Sep-23 12:03N 54°58' W 005°01'0 0.0
2018-Sep-23 12:00N 54°58' W 005°01'0 0.0
2018-Sep-23 11:26N 54°58' W 005°01'0 0.0
2018-Sep-23 11:03N 54°58' W 005°01'0 0.0
2018-Sep-23 10:56N 54°58' W 005°01'0 0.0
2018-Sep-23 10:30N 54°58' W 005°01'0 0.0
2018-Sep-23 10:01N 54°58' W 005°01'0 0.1
2018-Sep-23 10:00N 54°58' W 005°01'0 0.0
2018-Sep-23 09:28N 54°58' W 005°01'0 0.0
2018-Sep-23 09:03N 54°58' W 005°01'0 0.0
2018-Sep-23 08:59N 54°58' W 005°01'0 0.1
2018-Sep-23 08:30N 54°58' W 005°01'612.9
2018-Sep-23 08:03N 55°02' W 005°09'116.7
2018-Sep-23 08:00N 55°01' W 005°10'816.6
2018-Sep-23 07:30N 54°56' W 005°21'817.8
2018-Sep-23 07:03N 54°54' W 005°35'118.8
2018-Sep-23 07:00N 54°54' W 005°37'714.4
2018-Sep-23 06:30N 54°51' W 005°48'0 0.1
2018-Sep-23 05:59N 54°51' W 005°48'0 0.0
2018-Sep-23 05:29N 54°51' W 005°48'0 0.0
2018-Sep-23 05:02N 54°51' W 005°48'0 0.0
2018-Sep-23 04:56N 54°51' W 005°48'0 0.0
2018-Sep-23 04:26N 54°51' W 005°48'0 0.0
2018-Sep-23 04:02N 54°51' W 005°48'0 0.0
2018-Sep-23 03:56N 54°51' W 005°48'0 0.0
2018-Sep-23 02:38N 54°51' W 005°48'0 0.0
2018-Sep-23 02:20N 54°51' W 005°48'0 0.0
2018-Sep-23 01:50N 54°51' W 005°48'0 0.0
2018-Sep-23 01:29N 54°51' W 005°48'0 0.0
2018-Sep-23 01:02N 54°51' W 005°48'0 0.0
2018-Sep-23 00:56N 54°51' W 005°48'0 0.0
2018-Sep-23 00:26N 54°51' W 005°48'0 0.0
2018-Sep-22 23:56N 54°51' W 005°48'0 0.0
2018-Sep-22 23:26N 54°51' W 005°48'0 0.0
2018-Sep-22 23:02N 54°51' W 005°48'0 0.0
2018-Sep-22 22:38N 54°51' W 005°48'0 0.0
2018-Sep-22 22:26N 54°51' W 005°48'0 0.0
2018-Sep-22 22:02N 54°51' W 005°48'0 0.0
2018-Sep-22 21:50N 54°51' W 005°48'0 0.0
2018-Sep-22 20:50N 54°51' W 005°48'3 7.5
2018-Sep-22 20:30N 54°53' W 005°45'817.5
2018-Sep-22 20:03N 54°56' W 005°32'117.4
2018-Sep-22 20:00N 54°56' W 005°31'917.5
2018-Sep-22 19:30N 54°60' W 005°17'813.8
2018-Sep-22 18:54N 54°59' W 005°03'1 2.0
2018-Sep-22 18:11N 54°58' W 005°01'0 0.0
2018-Sep-22 17:56N 54°58' W 005°01'0 0.1
2018-Sep-22 17:31N 54°58' W 005°01'512.1
2018-Sep-22 17:03N 55°01' W 005°08'116.8
2018-Sep-22 17:00N 55°01' W 005°09'917.4
2018-Sep-22 16:30N 54°57' W 005°23'817.5
2018-Sep-22 16:03N 54°53' W 005°35'117.6
2018-Sep-22 16:00N 54°53' W 005°36'714.0
2018-Sep-22 15:30N 54°51' W 005°48'0 0.2
2018-Sep-22 15:03N 54°51' W 005°48'0 0.0
2018-Sep-22 15:00N 54°51' W 005°48'4 4.5
2018-Sep-22 14:03N 54°53' W 005°42'118.2
2018-Sep-22 14:00N 54°54' W 005°40'917.5
2018-Sep-22 13:30N 54°58' W 005°27'816.6
2018-Sep-22 13:03N 55°00' W 005°14'116.0
2018-Sep-22 13:00N 55°01' W 005°13'713.6
2018-Sep-22 12:30N 54°59' W 005°02'1 2.3
2018-Sep-22 12:02N 54°58' W 005°01'0 0.1
2018-Sep-22 11:56N 54°58' W 005°01'0 0.0
2018-Sep-22 11:30N 54°58' W 005°01'510.9
2018-Sep-22 11:03N 55°02' W 005°06'120.4
2018-Sep-22 11:00N 55°02' W 005°08'1020.6
2018-Sep-22 10:31N 54°57' W 005°24'920.4
2018-Sep-22 10:03N 54°54' W 005°39'120.5
2018-Sep-22 10:00N 54°53' W 005°40'5 9.8
2018-Sep-22 09:30N 54°51' W 005°48'0 0.0
2018-Sep-22 08:57N 54°51' W 005°48'0 0.0
2018-Sep-22 08:31N 54°51' W 005°48'511.4
2018-Sep-22 08:03N 54°54' W 005°40'119.6
2018-Sep-22 08:00N 54°54' W 005°39'918.0
2018-Sep-22 07:30N 54°58' W 005°25'817.0
2018-Sep-22 07:03N 55°01' W 005°12'117.7
2018-Sep-22 07:00N 55°01' W 005°11'713.2
2018-Sep-22 06:31N 54°58' W 005°01'0 0.4
2018-Sep-22 06:02N 54°58' W 005°01'0 0.0
2018-Sep-22 05:56N 54°58' W 005°01'0 0.0
2018-Sep-22 05:29N 54°58' W 005°01'0 0.0
2018-Sep-22 05:02N 54°58' W 005°01'0 0.0
2018-Sep-22 05:01N 54°58' W 005°01'510.1
2018-Sep-22 04:30N 55°02' W 005°07'816.9
2018-Sep-22 04:04N 54°59' W 005°19'116.9
2018-Sep-22 04:01N 54°58' W 005°20'917.1
2018-Sep-22 03:31N 54°55' W 005°34'817.9
2018-Sep-22 03:03N 54°52' W 005°47'112.7
2018-Sep-22 03:00N 54°51' W 005°48'0 0.7
2018-Sep-22 02:27N 54°51' W 005°48'0 0.0
2018-Sep-22 02:03N 54°51' W 005°48'0 0.0
2018-Sep-22 02:00N 54°51' W 005°48'0 0.0
2018-Sep-22 01:30N 54°51' W 005°48'0 0.0
2018-Sep-22 01:03N 54°51' W 005°48'0 0.0
2018-Sep-22 01:00N 54°51' W 005°48'510.2
2018-Sep-22 00:30N 54°54' W 005°41'817.6
2018-Sep-22 00:03N 54°57' W 005°28'117.2
2018-Sep-22 00:00N 54°58' W 005°27'816.8
2018-Sep-21 23:30N 55°01' W 005°13'613.7
2018-Sep-21 23:02N 54°59' W 005°03'116.1
2018-Sep-21 23:00N 54°59' W 005°02'1 1.9
2018-Sep-21 22:25N 54°58' W 005°01'0 0.0
2018-Sep-21 21:19N 54°58' W 005°01'0 0.0
2018-Sep-21 20:55N 54°58' W 005°01'510.0
2018-Sep-21 20:25N 55°02' W 005°07'617.4
2018-Sep-21 20:03N 54°60' W 005°17'117.5
2018-Sep-21 20:00N 54°59' W 005°19'918.5
2018-Sep-21 19:30N 54°55' W 005°33'818.7
2018-Sep-21 19:03N 54°52' W 005°47'114.6
2018-Sep-21 19:00N 54°52' W 005°48'1 1.4
2018-Sep-21 18:29N 54°51' W 005°48'0 0.0
2018-Sep-21 18:02N 54°51' W 005°48'0 0.0
2018-Sep-21 17:59N 54°51' W 005°48'0 0.0
2018-Sep-21 17:30N 54°51' W 005°48'612.5
2018-Sep-21 17:03N 54°54' W 005°40'119.1
2018-Sep-21 17:00N 54°54' W 005°38'1019.0
2018-Sep-21 16:30N 54°58' W 005°23'919.1
2018-Sep-21 16:03N 55°02' W 005°09'118.7
2018-Sep-21 16:00N 55°02' W 005°08'611.2
2018-Sep-21 15:30N 54°58' W 005°01'0 0.0
2018-Sep-21 15:03N 54°58' W 005°01'0 0.0
2018-Sep-21 15:01N 54°58' W 005°01'0 0.0
2018-Sep-21 14:30N 54°58' W 005°01'1110.9
2018-Sep-21 13:30N 54°58' W 005°20'919.8
2018-Sep-21 13:03N 54°55' W 005°34'119.9
2018-Sep-21 13:00N 54°54' W 005°36'815.3
2018-Sep-21 12:31N 54°51' W 005°48'0 0.1
2018-Sep-21 12:04N 54°51' W 005°48'0 0.0
2018-Sep-21 12:01N 54°51' W 005°48'0 0.1
2018-Sep-21 11:30N 54°51' W 005°48'716.7
2018-Sep-21 11:03N 54°55' W 005°37'120.9
2018-Sep-21 11:00N 54°55' W 005°35'1020.7
2018-Sep-21 10:30N 54°60' W 005°19'915.8
2018-Sep-21 09:56N 54°59' W 005°03'2 2.3
2018-Sep-21 09:05N 54°58' W 005°01'0 0.0
2018-Sep-21 08:59N 54°58' W 005°01'0 0.0
2018-Sep-21 08:30N 54°58' W 005°01'510.1
2018-Sep-21 08:00N 55°02' W 005°07'817.4
2018-Sep-21 07:30N 54°57' W 005°20'918.6
2018-Sep-21 07:03N 54°54' W 005°34'118.9
2018-Sep-21 07:00N 54°54' W 005°35'815.8
2018-Sep-21 06:30N 54°51' W 005°48'0 0.3
2018-Sep-21 06:03N 54°51' W 005°48'0 0.0
2018-Sep-21 06:00N 54°51' W 005°48'0 0.0
2018-Sep-21 05:30N 54°51' W 005°48'0 0.0
2018-Sep-21 05:04N 54°51' W 005°48'0 0.5
2018-Sep-21 05:01N 54°51' W 005°48'713.0
2018-Sep-21 04:30N 54°54' W 005°38'816.9
2018-Sep-21 04:03N 54°58' W 005°26'116.5
2018-Sep-21 04:00N 54°58' W 005°25'817.1
2018-Sep-21 03:30N 55°01' W 005°11'613.3
2018-Sep-21 03:03N 54°58' W 005°02'113.8
2018-Sep-21 03:00N 54°58' W 005°01'0 0.4
2018-Sep-21 02:30N 54°58' W 005°01'0 0.0
2018-Sep-21 02:03N 54°58' W 005°01'0 0.0
2018-Sep-21 02:00N 54°58' W 005°01'0 0.0
2018-Sep-21 01:27N 54°58' W 005°01'0 0.0
2018-Sep-21 01:00N 54°58' W 005°01'5 9.6
2018-Sep-21 00:30N 55°01' W 005°06'817.6
2018-Sep-21 00:03N 54°58' W 005°19'118.2
2018-Sep-21 00:01N 54°58' W 005°20'917.8
2018-Sep-20 23:30N 54°54' W 005°34'817.5
2018-Sep-20 23:03N 54°52' W 005°47'113.8
2018-Sep-20 23:00N 54°51' W 005°48'0 0.7
2018-Sep-20 22:30N 54°51' W 005°48'0 0.0
2018-Sep-20 22:03N 54°51' W 005°48'0 0.0
2018-Sep-20 22:00N 54°51' W 005°48'0 0.0
2018-Sep-20 21:27N 54°51' W 005°48'0 0.0
2018-Sep-20 21:03N 54°51' W 005°48'0 0.0
2018-Sep-20 21:00N 54°51' W 005°48'611.2
2018-Sep-20 20:30N 54°54' W 005°39'818.2
2018-Sep-20 20:03N 54°58' W 005°27'118.3
2018-Sep-20 20:00N 54°58' W 005°26'1314.1
2018-Sep-20 19:04N 54°59' W 005°02'0 9.8
2018-Sep-20 19:03N 54°59' W 005°02'114.8
2018-Sep-20 19:00N 54°58' W 005°02'1 1.1
2018-Sep-20 18:25N 54°58' W 005°01'0 0.0
2018-Sep-20 17:55N 54°58' W 005°01'0 0.0
2018-Sep-20 17:29N 54°58' W 005°01'510.3
2018-Sep-20 17:00N 55°02' W 005°07'919.3
2018-Sep-20 16:30N 54°58' W 005°22'920.4
2018-Sep-20 16:03N 54°55' W 005°37'120.8
2018-Sep-20 16:00N 54°54' W 005°38'612.2
2018-Sep-20 15:29N 54°51' W 005°48'0 0.0
2018-Sep-20 15:03N 54°51' W 005°48'0 0.0
2018-Sep-20 15:00N 54°51' W 005°48'0 0.0
2018-Sep-20 14:30N 54°51' W 005°48'610.9
2018-Sep-20 13:56N 54°54' W 005°39'819.5
2018-Sep-20 13:30N 54°58' W 005°26'1415.1
2018-Sep-20 12:36N 54°59' W 005°02'1 1.0
2018-Sep-20 11:25N 54°58' W 005°01'613.1
2018-Sep-20 10:57N 55°01' W 005°10'921.5
2018-Sep-20 10:31N 54°57' W 005°25'921.0
2018-Sep-20 10:03N 54°54' W 005°40'121.1
2018-Sep-20 10:01N 54°54' W 005°42'4 8.8
2018-Sep-20 09:30N 54°51' W 005°48'0 0.0
2018-Sep-20 09:00N 54°51' W 005°48'0 0.2
2018-Sep-20 08:30N 54°51' W 005°48'916.6
2018-Sep-20 07:59N 54°55' W 005°35'1020.4
2018-Sep-20 07:30N 54°59' W 005°19'1015.6
2018-Sep-20 06:53N 54°59' W 005°02'1 0.8
2018-Sep-20 05:12N 54°58' W 005°01'110.3
2018-Sep-20 05:03N 54°59' W 005°03'515.9
2018-Sep-20 04:44N 55°01' W 005°10'520.5
2018-Sep-20 04:31N 54°59' W 005°17'1021.2
2018-Sep-20 04:03N 54°55' W 005°32'122.0
2018-Sep-20 04:00N 54°54' W 005°34'917.3
2018-Sep-20 03:30N 54°51' W 005°48'0 0.2
2018-Sep-20 03:01N 54°51' W 005°48'0 0.0
2018-Sep-20 02:58N 54°51' W 005°48'0 0.0
2018-Sep-20 02:25N 54°51' W 005°48'0 0.0
2018-Sep-20 02:01N 54°51' W 005°48'0 0.0
2018-Sep-20 01:58N 54°51' W 005°48'4 7.7
2018-Sep-20 01:27N 54°53' W 005°42'820.1
2018-Sep-20 01:03N 54°57' W 005°30'120.0
2018-Sep-20 01:01N 54°57' W 005°28'1019.7
2018-Sep-20 00:29N 55°01' W 005°12'7 3.4
2018-Sep-19 22:22N 54°58' W 005°01'0 0.0
2018-Sep-19 21:37N 54°58' W 005°01'0 0.6
2018-Sep-19 21:30N 54°58' W 005°01'614.3
2018-Sep-19 21:03N 55°01' W 005°10'120.5
2018-Sep-19 21:00N 55°01' W 005°12'1020.7
2018-Sep-19 20:30N 54°56' W 005°28'921.0
2018-Sep-19 20:04N 54°53' W 005°43'121.0
2018-Sep-19 20:01N 54°53' W 005°45'3 5.0
2018-Sep-19 19:30N 54°51' W 005°48'0 0.0
2018-Sep-19 19:00N 54°51' W 005°48'0 0.0
2018-Sep-19 18:27N 54°51' W 005°48'0 0.0
2018-Sep-19 18:00N 54°51' W 005°48'0 0.0
2018-Sep-19 17:31N 54°51' W 005°48'410.0
2018-Sep-19 17:03N 54°54' W 005°42'119.9
2018-Sep-19 17:00N 54°54' W 005°40'1019.7
2018-Sep-19 16:31N 54°59' W 005°26'1315.4
2018-Sep-19 15:38N 54°59' W 005°02'0 0.0
2018-Sep-19 04:41N 54°59' W 005°02'515.5
2018-Sep-19 04:23N 55°01' W 005°08'619.5
2018-Sep-19 04:04N 54°59' W 005°18'119.8
2018-Sep-19 04:01N 54°58' W 005°20'1220.1
2018-Sep-19 03:26N 54°54' W 005°38'616.1
2018-Sep-19 03:03N 54°51' W 005°48'0 1.4
2018-Sep-19 03:00N 54°51' W 005°48'0 0.1
2018-Sep-19 02:30N 54°51' W 005°48'0 0.0
2018-Sep-19 02:03N 54°51' W 005°48'0 0.0
2018-Sep-19 01:51N 54°51' W 005°48'0 0.0
2018-Sep-19 01:24N 54°51' W 005°48'0 0.0
2018-Sep-19 01:03N 54°51' W 005°48'0 0.0
2018-Sep-19 01:00N 54°51' W 005°48'3 5.4
2018-Sep-19 00:30N 54°53' W 005°44'919.6
2018-Sep-19 00:03N 54°57' W 005°31'117.8
2018-Sep-19 00:01N 54°58' W 005°30'918.5
2018-Sep-18 23:30N 55°01' W 005°15'715.3
2018-Sep-18 23:01N 54°59' W 005°03'015.8
2018-Sep-18 23:00N 54°59' W 005°02'1 0.6
2018-Sep-18 20:57N 54°58' W 005°01'611.2
2018-Sep-18 20:26N 55°01' W 005°09'718.0
2018-Sep-18 20:03N 54°59' W 005°20'118.3
2018-Sep-18 20:00N 54°58' W 005°21'1017.5
2018-Sep-18 19:25N 54°54' W 005°38'615.5
2018-Sep-18 19:00N 54°51' W 005°48'0 0.3
2018-Sep-18 18:30N 54°51' W 005°48'0 0.0
2018-Sep-18 18:03N 54°51' W 005°48'0 0.0
2018-Sep-18 18:00N 54°51' W 005°48'0 0.0
2018-Sep-18 17:30N 54°51' W 005°48'4 8.2
2018-Sep-18 17:03N 54°54' W 005°44'217.7
2018-Sep-18 16:57N 54°55' W 005°41'716.7
2018-Sep-18 16:30N 54°57' W 005°29'716.5
2018-Sep-18 16:04N 54°60' W 005°17'116.6
2018-Sep-18 16:00N 55°00' W 005°16'813.8
2018-Sep-18 15:26N 54°59' W 005°02'1 0.9
2018-Sep-18 14:16N 54°58' W 005°01'613.0
2018-Sep-18 13:50N 55°01' W 005°09'720.0
2018-Sep-18 13:30N 54°58' W 005°19'920.6
2018-Sep-18 13:03N 54°55' W 005°33'320.9
2018-Sep-18 12:56N 54°54' W 005°38'615.4
2018-Sep-18 12:30N 54°51' W 005°48'0 0.3
2018-Sep-18 12:03N 54°51' W 005°48'0 0.0
2018-Sep-18 12:00N 54°51' W 005°48'0 0.0
2018-Sep-18 11:30N 54°51' W 005°48'611.4
2018-Sep-18 10:56N 54°54' W 005°38'919.6
2018-Sep-18 10:30N 54°58' W 005°25'1315.7
2018-Sep-18 09:41N 54°59' W 005°02'1 0.9
2018-Sep-18 08:22N 54°58' W 005°01'613.1
2018-Sep-18 07:53N 55°01' W 005°10'718.3
2018-Sep-18 07:30N 54°58' W 005°20'1117.6
2018-Sep-18 06:54N 54°54' W 005°38'616.0
2018-Sep-18 06:30N 54°51' W 005°48'0 0.4
2018-Sep-18 05:59N 54°51' W 005°48'0 0.0
2018-Sep-18 05:29N 54°51' W 005°48'0 0.0
2018-Sep-18 05:03N 54°51' W 005°48'0 0.0
2018-Sep-18 05:00N 54°51' W 005°48'612.6
2018-Sep-18 04:30N 54°54' W 005°39'817.3
2018-Sep-18 04:03N 54°58' W 005°27'116.1
2018-Sep-18 04:00N 54°58' W 005°26'1015.8
2018-Sep-18 03:23N 55°01' W 005°09'513.0
2018-Sep-18 03:01N 54°59' W 005°02'014.3
2018-Sep-18 03:01N 54°59' W 005°02'1 0.5
2018-Sep-18 00:54N 54°58' W 005°01'512.0
2018-Sep-18 00:27N 55°02' W 005°08'820.5
2018-Sep-18 00:04N 54°59' W 005°21'120.9
2018-Sep-18 00:00N 54°59' W 005°23'1021.0
2018-Sep-17 23:31N 54°54' W 005°39'613.0
2018-Sep-17 23:03N 54°51' W 005°48'0 0.0
2018-Sep-17 23:00N 54°51' W 005°48'0 0.0
2018-Sep-17 22:29N 54°51' W 005°48'0 0.0
2018-Sep-17 22:02N 54°51' W 005°48'0 0.0
2018-Sep-17 21:56N 54°51' W 005°48'0 0.0
2018-Sep-17 21:29N 54°51' W 005°48'0 0.0
2018-Sep-17 21:02N 54°51' W 005°48'0 0.0
2018-Sep-17 21:00N 54°51' W 005°48'712.1
2018-Sep-17 20:27N 54°55' W 005°38'616.5
2018-Sep-17 20:03N 54°57' W 005°28'115.7
2018-Sep-17 20:00N 54°58' W 005°27'815.5
2018-Sep-17 19:29N 55°01' W 005°14'712.9
2018-Sep-17 18:56N 54°59' W 005°02'1 0.7
2018-Sep-17 17:19N 54°58' W 005°01'613.4
2018-Sep-17 16:54N 55°02' W 005°08'819.9
2018-Sep-17 16:30N 54°58' W 005°20'920.0
2018-Sep-17 16:03N 54°55' W 005°35'220.3
2018-Sep-17 15:58N 54°54' W 005°38'714.2
2018-Sep-17 15:30N 54°51' W 005°48'0 0.1
2018-Sep-17 15:03N 54°51' W 005°48'0 0.0
2018-Sep-17 15:00N 54°51' W 005°48'0 0.0
2018-Sep-17 14:30N 54°51' W 005°48'610.5
2018-Sep-17 13:54N 54°54' W 005°39'616.2
2018-Sep-17 13:30N 54°57' W 005°29'816.6
2018-Sep-17 13:03N 55°00' W 005°17'116.5
2018-Sep-17 13:00N 55°00' W 005°15'813.5
2018-Sep-17 12:26N 54°59' W 005°02'1 1.6
2018-Sep-17 11:40N 54°58' W 005°01'0 0.0
2018-Sep-17 11:26N 54°58' W 005°01'610.4
2018-Sep-17 10:54N 55°01' W 005°08'819.9
2018-Sep-17 10:31N 54°58' W 005°21'1120.3
2018-Sep-17 09:59N 54°54' W 005°37'713.7
2018-Sep-17 09:30N 54°51' W 005°48'0 0.2
2018-Sep-17 09:03N 54°51' W 005°48'0 0.0
2018-Sep-17 09:00N 54°51' W 005°48'0 0.0
2018-Sep-17 08:30N 54°51' W 005°48'2 4.6
2018-Sep-17 08:03N 54°52' W 005°46'117.9
2018-Sep-17 08:00N 54°53' W 005°44'918.0
2018-Sep-17 07:30N 54°57' W 005°30'817.6
2018-Sep-17 07:03N 54°60' W 005°17'117.3
2018-Sep-17 07:00N 55°00' W 005°16'814.1
2018-Sep-17 06:26N 54°59' W 005°03'1 1.0
2018-Sep-17 05:02N 54°58' W 005°01'0 0.2
2018-Sep-17 05:00N 54°58' W 005°01'5 9.6
2018-Sep-17 04:28N 55°02' W 005°07'717.6
2018-Sep-17 04:03N 54°59' W 005°19'117.8
2018-Sep-17 04:00N 54°58' W 005°20'918.2
2018-Sep-17 03:30N 54°54' W 005°34'817.7
2018-Sep-17 03:03N 54°52' W 005°47'112.3
2018-Sep-17 03:00N 54°51' W 005°48'0 0.4
2018-Sep-17 02:28N 54°51' W 005°48'0 0.0
2018-Sep-17 02:01N 54°51' W 005°48'0 0.0
2018-Sep-17 01:58N 54°51' W 005°48'0 0.0
2018-Sep-17 01:28N 54°51' W 005°48'0 0.0
2018-Sep-17 01:01N 54°51' W 005°48'0 0.0
2018-Sep-17 00:59N 54°51' W 005°48'5 9.8
2018-Sep-17 00:30N 54°53' W 005°41'817.3
2018-Sep-17 00:04N 54°57' W 005°29'116.9
2018-Sep-17 00:00N 54°57' W 005°28'917.4
2018-Sep-16 23:30N 55°01' W 005°14'713.7
2018-Sep-16 23:01N 54°59' W 005°02'014.3
2018-Sep-16 23:00N 54°59' W 005°02'1 0.6
2018-Sep-16 21:00N 54°58' W 005°01'510.4
2018-Sep-16 20:29N 55°02' W 005°08'717.5
2018-Sep-16 20:04N 54°58' W 005°19'118.1
2018-Sep-16 20:01N 54°58' W 005°21'917.3
2018-Sep-16 19:30N 54°55' W 005°35'816.0
2018-Sep-16 18:59N 54°51' W 005°48'0 0.4
2018-Sep-16 18:27N 54°51' W 005°48'0 0.0
2018-Sep-16 18:03N 54°51' W 005°48'0 0.1
2018-Sep-16 18:00N 54°51' W 005°48'0 0.0
2018-Sep-16 17:30N 54°51' W 005°48'4 9.1
2018-Sep-16 17:03N 54°53' W 005°42'218.1
2018-Sep-16 16:56N 54°54' W 005°39'817.7
2018-Sep-16 16:30N 54°57' W 005°27'817.4
2018-Sep-16 16:03N 55°00' W 005°14'117.5
2018-Sep-16 16:00N 55°01' W 005°13'713.7
2018-Sep-16 15:30N 54°58' W 005°02'6 3.4
2018-Sep-16 13:53N 55°01' W 005°10'719.5
2018-Sep-16 13:30N 54°58' W 005°21'1220.6
2018-Sep-16 12:57N 54°53' W 005°40'512.2
2018-Sep-16 12:30N 54°51' W 005°48'0 0.0
2018-Sep-16 12:00N 54°51' W 005°48'0 0.0
2018-Sep-16 11:27N 54°51' W 005°48'0 0.0
2018-Sep-16 11:02N 54°51' W 005°48'0 0.2
2018-Sep-16 11:00N 54°51' W 005°48'0 0.0
2018-Sep-16 10:30N 54°51' W 005°48'0 0.0
2018-Sep-16 10:03N 54°51' W 005°48'0 0.0
2018-Sep-16 10:00N 54°51' W 005°48'0 0.0
2018-Sep-16 09:30N 54°51' W 005°48'0 0.0
2018-Sep-16 09:03N 54°51' W 005°48'0 0.0
2018-Sep-16 09:00N 54°51' W 005°48'0 0.0
2018-Sep-16 08:30N 54°51' W 005°48'2 4.7
2018-Sep-16 08:03N 54°52' W 005°45'119.2
2018-Sep-16 08:01N 54°53' W 005°44'1019.2
2018-Sep-16 07:31N 54°57' W 005°29'817.6
2018-Sep-16 07:04N 55°00' W 005°17'114.6
2018-Sep-16 07:00N 55°00' W 005°15'813.0
2018-Sep-16 06:25N 54°59' W 005°02'1 0.1
2018-Sep-15 21:01N 54°58' W 005°01'0 1.9
2018-Sep-15 20:58N 54°58' W 005°01'611.9
2018-Sep-15 20:30N 55°01' W 005°08'919.8
2018-Sep-15 20:03N 54°58' W 005°22'120.3
2018-Sep-15 20:00N 54°57' W 005°24'1019.7
2018-Sep-15 19:30N 54°54' W 005°40'612.3
2018-Sep-15 19:03N 54°51' W 005°48'0 0.1
2018-Sep-15 19:00N 54°51' W 005°48'0 0.0
2018-Sep-15 18:27N 54°51' W 005°48'0 0.0
2018-Sep-15 17:57N 54°51' W 005°48'0 0.0
2018-Sep-15 17:30N 54°51' W 005°48'2 4.0
2018-Sep-15 16:58N 54°52' W 005°45'920.1
2018-Sep-15 16:30N 54°56' W 005°30'919.7
2018-Sep-15 16:02N 55°00' W 005°16'219.2
2018-Sep-15 15:55N 55°01' W 005°13'615.3
2018-Sep-15 15:30N 54°59' W 005°02'1 1.1
2018-Sep-15 14:18N 54°58' W 005°01'612.8
2018-Sep-15 13:52N 55°02' W 005°08'719.3
2018-Sep-15 13:30N 54°58' W 005°19'920.0
2018-Sep-15 13:03N 54°55' W 005°33'120.6
2018-Sep-15 13:00N 54°54' W 005°35'816.5
2018-Sep-15 12:30N 54°51' W 005°48'0 0.2
2018-Sep-15 12:03N 54°51' W 005°48'0 0.0
2018-Sep-15 12:00N 54°51' W 005°48'0 0.0
2018-Sep-15 11:30N 54°51' W 005°48'612.0
2018-Sep-15 11:00N 54°54' W 005°39'816.5
2018-Sep-15 10:30N 54°58' W 005°27'817.1
2018-Sep-15 10:03N 55°01' W 005°14'117.4
2018-Sep-15 09:59N 55°01' W 005°12'613.0
2018-Sep-15 09:30N 54°59' W 005°02'1 1.3
2018-Sep-15 08:41N 54°58' W 005°01'0 0.1
2018-Sep-15 08:26N 54°58' W 005°01'610.5
2018-Sep-15 07:53N 55°01' W 005°09'617.1
2018-Sep-15 07:31N 54°59' W 005°19'817.8
2018-Sep-15 07:04N 54°55' W 005°31'117.6
2018-Sep-15 07:00N 54°55' W 005°33'916.0
2018-Sep-15 06:25N 54°51' W 005°48'0 0.4
2018-Sep-15 06:03N 54°51' W 005°48'0 0.0
2018-Sep-15 06:00N 54°51' W 005°48'0 0.0
2018-Sep-15 05:30N 54°51' W 005°48'0 0.0
2018-Sep-15 05:03N 54°51' W 005°48'0 0.0
2018-Sep-15 05:00N 54°51' W 005°48'4 7.9
2018-Sep-15 04:29N 54°53' W 005°42'917.9
2018-Sep-15 03:58N 54°58' W 005°28'817.6
2018-Sep-15 03:30N 55°01' W 005°15'713.8
2018-Sep-15 02:58N 54°59' W 005°02'1 0.6
2018-Sep-15 00:54N 54°58' W 005°01'612.8
2018-Sep-15 00:26N 55°01' W 005°09'617.1
2018-Sep-15 00:04N 54°58' W 005°19'117.3
2018-Sep-15 00:01N 54°57' W 005°20'1118.3
2018-Sep-14 23:26N 54°53' W 005°36'716.7
2018-Sep-14 23:01N 54°51' W 005°48'0 6.2
2018-Sep-14 23:00N 54°51' W 005°48'0 0.2
2018-Sep-14 22:29N 54°51' W 005°48'0 0.0
2018-Sep-14 22:02N 54°51' W 005°48'0 0.1
2018-Sep-14 21:59N 54°51' W 005°48'  

Dump ship's entire track history